Time;durP1;ratioP1;P1;durP2;ratioP2;P2;SDS_P1;SDS_P2;PMS_P1;PMS_P2;Temp;Humidity;BMP_temperature;BMP_pressure;BME280_temperature;BME280_humidity;BME280_pressure;Samples;Min_cycle;Max_cycle;Signal;HPM_P1;HPM_P2
2024/04/21 00:01:06;;;;;;;5.87;4.83;;;3.20;99.90;;;;;;5272889;27;20342;-59
2024/04/21 00:03:32;;;;;;;6.70;4.70;;;3.10;99.90;;;;;;5271859;27;20267;-56
2024/04/21 00:05:57;;;;;;;6.33;5.67;;;3.10;99.90;;;;;;5273505;27;20271;-60
2024/04/21 00:08:23;;;;;;;5.07;4.00;;;3.10;99.90;;;;;;5272768;27;20414;-62
2024/04/21 00:10:48;;;;;;;6.40;5.80;;;3.00;99.90;;;;;;5273193;27;20323;-61
2024/04/21 00:13:14;;;;;;;13.53;4.73;;;3.00;99.90;;;;;;5273637;27;20232;-62
2024/04/21 00:15:40;;;;;;;4.47;3.80;;;2.90;99.90;;;;;;5272745;27;20229;-62
2024/04/21 00:18:05;;;;;;;5.27;4.23;;;2.90;99.90;;;;;;5272997;27;20240;-63
2024/04/21 00:20:31;;;;;;;6.23;4.73;;;2.90;99.90;;;;;;5272771;27;20229;-59
2024/04/21 00:22:56;;;;;;;4.70;4.27;;;2.80;99.90;;;;;;5273249;27;20371;-61
2024/04/21 00:25:22;;;;;;;7.43;5.23;;;2.80;99.90;;;;;;5273240;27;20584;-62
2024/04/21 00:27:48;;;;;;;7.20;5.60;;;2.80;99.90;;;;;;5272948;27;20343;-60
2024/04/21 00:30:13;;;;;;;4.50;4.10;;;2.80;99.90;;;;;;5272942;27;20225;-62
2024/04/21 00:32:39;;;;;;;9.70;4.67;;;2.70;99.90;;;;;;5272789;27;20232;-62
2024/04/21 00:35:05;;;;;;;6.60;5.00;;;2.70;99.90;;;;;;5272923;27;20225;-59
2024/04/21 00:37:30;;;;;;;6.63;5.90;;;2.70;99.90;;;;;;5272899;27;20811;-58
2024/04/21 00:39:56;;;;;;;7.83;4.97;;;2.70;99.90;;;;;;5272709;27;20811;-62
2024/04/21 00:42:21;;;;;;;6.57;5.60;;;2.60;99.90;;;;;;5272768;27;20310;-61
2024/04/21 00:44:47;;;;;;;5.80;4.73;;;2.60;99.90;;;;;;5272484;27;20361;-61
2024/04/21 00:47:13;;;;;;;8.50;5.80;;;2.60;99.90;;;;;;5272430;27;20228;-58
2024/04/21 00:49:38;;;;;;;5.60;4.80;;;2.60;99.90;;;;;;5272338;27;20274;-59
2024/04/21 00:52:04;;;;;;;11.23;4.60;;;2.60;99.90;;;;;;5272634;27;20342;-59
2024/04/21 00:54:31;;;;;;;4.30;3.90;;;2.50;99.90;;;;;;5272293;27;20825;-60
2024/04/21 00:56:57;;;;;;;4.33;3.90;;;2.50;99.90;;;;;;5272604;27;20459;-61
2024/04/21 00:59:22;;;;;;;5.60;4.67;;;2.50;99.90;;;;;;5272221;27;20998;-61
2024/04/21 01:01:48;;;;;;;6.33;4.83;;;2.40;99.90;;;;;;5272111;27;20232;-61
2024/04/21 01:04:14;;;;;;;5.60;4.80;;;2.40;99.90;;;;;;5272927;27;20526;-60
2024/04/21 01:06:40;;;;;;;6.50;5.20;;;2.40;99.90;;;;;;5272829;27;20456;-60
2024/04/21 01:09:06;;;;;;;4.87;4.37;;;2.40;99.90;;;;;;5272555;27;20345;-60
2024/04/21 01:11:31;;;;;;;5.90;4.23;;;2.30;99.90;;;;;;5272187;27;20468;-60
2024/04/21 01:13:57;;;;;;;7.80;5.80;;;2.30;99.90;;;;;;5274302;27;20582;-60
2024/04/21 01:16:23;;;;;;;5.60;5.10;;;2.30;99.90;;;;;;5275878;27;20739;-58
2024/04/21 01:18:48;;;;;;;7.67;4.73;;;2.30;99.90;;;;;;5275540;27;20299;-60
2024/04/21 01:21:15;;;;;;;6.53;5.43;;;2.20;99.90;;;;;;5275359;27;20244;-59
2024/04/21 01:23:41;;;;;;;5.40;4.90;;;2.20;99.90;;;;;;5275242;27;20339;-60
2024/04/21 01:26:06;;;;;;;7.20;5.80;;;2.20;99.90;;;;;;5275665;27;20460;-60
2024/04/21 01:28:32;;;;;;;6.23;5.23;;;2.20;99.90;;;;;;5274988;27;20232;-57
2024/04/21 01:30:58;;;;;;;4.43;4.03;;;2.10;99.90;;;;;;5275241;27;20224;-60
2024/04/21 01:33:23;;;;;;;5.43;4.60;;;2.10;99.90;;;;;;5275247;27;20228;-60
2024/04/21 01:35:49;;;;;;;6.20;5.10;;;2.10;99.90;;;;;;5275075;27;20608;-60
2024/04/21 01:38:15;;;;;;;5.87;4.60;;;2.10;99.90;;;;;;5272782;27;20228;-53
2024/04/21 01:40:41;;;;;;;7.63;5.03;;;2.00;99.90;;;;;;5274510;27;20682;-59
2024/04/21 01:43:07;;;;;;;7.30;6.07;;;2.00;99.90;;;;;;5275296;27;20267;-61
2024/04/21 01:45:32;;;;;;;8.57;4.67;;;1.90;99.90;;;;;;5274769;27;20455;-58
2024/04/21 01:47:58;;;;;;;7.00;4.50;;;1.90;99.90;;;;;;5275194;27;20228;-59
2024/04/21 01:50:24;;;;;;;7.80;5.70;;;1.90;99.90;;;;;;5274894;27;20224;-60
2024/04/21 01:52:50;;;;;;;8.03;6.10;;;1.80;99.90;;;;;;5274746;27;20233;-60
2024/04/21 01:55:16;;;;;;;7.70;5.07;;;1.80;99.90;;;;;;5275006;27;20684;-60
2024/04/21 01:57:43;;;;;;;5.57;4.63;;;1.80;99.90;;;;;;5274723;27;20467;-62
2024/04/21 02:00:09;;;;;;;6.97;4.10;;;1.80;99.90;;;;;;5274468;27;20396;-62
2024/04/21 02:02:34;;;;;;;8.23;4.50;;;1.80;99.90;;;;;;5274673;27;20595;-62
2024/04/21 02:05:00;;;;;;;8.13;4.77;;;1.80;99.90;;;;;;5274983;27;20456;-60
2024/04/21 02:07:25;;;;;;;7.63;5.43;;;1.80;99.90;;;;;;5274866;27;20625;-63
2024/04/21 02:09:51;;;;;;;7.53;5.20;;;1.70;99.90;;;;;;5274273;27;20221;-59
2024/04/21 02:12:16;;;;;;;6.73;5.20;;;1.70;99.90;;;;;;5275063;27;20232;-58
2024/04/21 02:14:42;;;;;;;4.77;4.37;;;1.70;99.90;;;;;;5274865;27;20579;-61
2024/04/21 02:17:07;;;;;;;5.73;4.53;;;1.70;99.90;;;;;;5274858;27;20260;-60
2024/04/21 02:19:33;;;;;;;6.57;5.60;;;1.70;99.90;;;;;;5274317;27;20271;-59
2024/04/21 02:21:59;;;;;;;5.90;4.70;;;1.60;99.90;;;;;;5274492;27;20279;-60
2024/04/21 02:24:25;;;;;;;6.43;4.40;;;1.60;99.90;;;;;;5274823;27;20228;-60
2024/04/21 02:26:51;;;;;;;6.20;4.57;;;1.60;99.90;;;;;;5274208;27;20228;-60
2024/04/21 02:29:17;;;;;;;7.30;4.23;;;1.60;99.90;;;;;;5274477;27;20515;-60
2024/04/21 02:31:43;;;;;;;4.20;3.80;;;1.60;99.90;;;;;;5274218;27;20564;-56
2024/04/21 02:34:08;;;;;;;7.80;4.80;;;1.50;99.90;;;;;;5274659;27;20221;-62
2024/04/21 02:36:34;;;;;;;5.47;4.97;;;1.50;99.90;;;;;;5274357;27;20284;-62
2024/04/21 02:39:00;;;;;;;5.17;4.00;;;1.50;99.90;;;;;;5274478;27;20355;-62
2024/04/21 02:41:25;;;;;;;5.60;4.20;;;1.50;99.90;;;;;;5274172;27;20653;-62
2024/04/21 02:43:51;;;;;;;6.17;4.63;;;1.40;99.90;;;;;;5273767;27;20229;-59
2024/04/21 02:46:17;;;;;;;7.40;4.93;;;1.40;99.90;;;;;;5274365;27;20272;-62
2024/04/21 02:48:42;;;;;;;5.90;5.03;;;1.40;99.90;;;;;;5274032;27;20371;-59
2024/04/21 02:51:08;;;;;;;6.00;5.40;;;1.40;99.90;;;;;;5273903;27;20286;-61
2024/04/21 02:53:33;;;;;;;7.00;5.00;;;1.40;99.90;;;;;;5273970;27;20232;-61
2024/04/21 02:55:59;;;;;;;5.27;4.57;;;1.30;99.90;;;;;;5274165;27;20616;-59
2024/04/21 02:58:24;;;;;;;5.07;4.50;;;1.30;99.90;;;;;;5274209;27;20228;-61
2024/04/21 03:00:50;;;;;;;6.37;5.67;;;1.30;99.90;;;;;;5273644;27;20287;-61
2024/04/21 03:03:15;;;;;;;6.13;4.60;;;1.20;99.90;;;;;;5274337;27;20224;-61
2024/04/21 03:05:41;;;;;;;7.60;4.90;;;1.20;99.90;;;;;;5273804;27;20730;-58
2024/04/21 03:08:08;;;;;;;12.57;5.30;;;1.20;99.90;;;;;;5274227;27;20225;-60
2024/04/21 03:10:33;;;;;;;5.23;4.40;;;1.20;99.90;;;;;;5273577;27;20548;-60
2024/04/21 03:12:59;;;;;;;6.07;4.80;;;1.20;99.90;;;;;;5273795;27;20587;-60
2024/04/21 03:15:25;;;;;;;6.23;4.90;;;1.10;99.90;;;;;;5273871;27;20272;-61
2024/04/21 03:17:51;;;;;;;4.93;4.50;;;1.10;99.90;;;;;;5273625;27;20252;-63
2024/04/21 03:20:16;;;;;;;10.80;5.60;;;1.00;99.90;;;;;;5273491;27;20561;-56
2024/04/21 03:22:42;;;;;;;7.00;5.07;;;0.90;99.90;;;;;;5273640;27;20225;-60
2024/04/21 03:25:07;;;;;;;4.53;4.10;;;0.90;99.90;;;;;;5274013;27;20307;-57
2024/04/21 03:27:33;;;;;;;5.60;4.37;;;0.90;99.90;;;;;;5273768;27;20704;-56
2024/04/21 03:29:59;;;;;;;6.20;5.03;;;0.80;99.90;;;;;;5273764;27;20668;-63
2024/04/21 03:32:24;;;;;;;6.67;4.90;;;0.80;99.90;;;;;;5274086;27;20633;-60
2024/04/21 03:34:56;;;;;;;6.73;5.07;;;0.90;99.90;;;;;;5273528;27;20351;-58
2024/04/21 03:37:21;;;;;;;5.23;4.17;;;0.80;99.90;;;;;;5272467;27;20797;-61
2024/04/21 03:39:47;;;;;;;7.77;5.77;;;0.70;99.90;;;;;;5272210;27;20472;-56
2024/04/21 03:42:13;;;;;;;5.33;4.70;;;0.70;99.90;;;;;;5273743;27;20267;-54
2024/04/21 03:44:38;;;;;;;4.33;4.00;;;0.70;99.90;;;;;;5273383;27;20462;-56
2024/04/21 03:47:04;;;;;;;6.67;4.90;;;0.70;99.90;;;;;;5273953;27;20703;-50
2024/04/21 03:49:30;;;;;;;6.27;4.47;;;0.70;99.90;;;;;;5273821;27;20322;-52
2024/04/21 03:51:55;;;;;;;6.63;4.40;;;0.70;99.90;;;;;;5273578;27;20251;-56
2024/04/21 03:54:21;;;;;;;4.67;3.83;;;0.60;99.90;;;;;;5273423;27;20401;-55
2024/04/21 03:56:46;;;;;;;5.93;5.33;;;0.60;99.90;;;;;;5273183;27;20330;-59
2024/04/21 03:59:12;;;;;;;6.07;5.00;;;0.60;99.90;;;;;;5273163;27;20263;-54
2024/04/21 04:01:37;;;;;;;6.50;4.37;;;0.60;99.90;;;;;;5273192;27;20224;-56
2024/04/21 04:04:04;;;;;;;6.07;4.73;;;0.60;99.90;;;;;;5273198;27;20560;-55
2024/04/21 04:06:30;;;;;;;8.10;4.50;;;0.60;99.90;;;;;;5273762;27;20558;-52
2024/04/21 04:08:58;;;;;;;6.50;4.63;;;0.60;99.90;;;;;;5273243;27;20244;-57
2024/04/21 04:11:24;;;;;;;4.70;4.00;;;0.70;99.90;;;;;;5273291;27;20232;-56
2024/04/21 04:13:49;;;;;;;4.40;4.00;;;0.70;99.90;;;;;;5273029;27;20519;-54
2024/04/21 04:16:15;;;;;;;5.20;4.10;;;0.70;99.90;;;;;;5273118;27;20308;-57
2024/04/21 04:18:41;;;;;;;5.40;4.80;;;0.70;99.90;;;;;;5272681;27;20284;-57
2024/04/21 04:21:06;;;;;;;6.10;4.30;;;0.80;99.90;;;;;;5272985;27;20228;-54
2024/04/21 04:23:32;;;;;;;4.37;3.90;;;0.80;99.90;;;;;;5273690;27;20240;-53
2024/04/21 04:25:58;;;;;;;5.73;5.10;;;0.80;99.90;;;;;;5272864;27;20283;-50
2024/04/21 04:28:23;;;;;;;6.13;4.57;;;0.90;99.90;;;;;;5273110;27;20512;-51
2024/04/21 04:30:49;;;;;;;12.27;3.73;;;0.90;99.90;;;;;;5272954;27;20236;-58
2024/04/21 04:33:14;;;;;;;6.80;5.43;;;0.90;99.90;;;;;;5273135;27;20240;-52
2024/04/21 04:35:40;;;;;;;4.80;4.40;;;0.90;99.90;;;;;;5273509;27;20342;-56
2024/04/21 04:38:05;;;;;;;4.77;3.70;;;1.00;99.90;;;;;;5273873;27;20566;-54
2024/04/21 04:40:32;;;;;;;7.17;4.67;;;1.00;99.90;;;;;;5273912;27;20349;-58
2024/04/21 04:42:58;;;;;;;5.70;5.00;;;1.10;99.90;;;;;;5274297;27;20318;-53
2024/04/21 04:45:24;;;;;;;6.50;3.83;;;1.10;99.90;;;;;;5273270;27;20567;-50
2024/04/21 04:47:49;;;;;;;5.13;4.33;;;1.10;99.90;;;;;;5272449;27;20524;-53
2024/04/21 04:50:15;;;;;;;5.53;4.10;;;1.20;99.90;;;;;;5272716;27;20770;-55
2024/04/21 04:52:41;;;;;;;6.10;4.03;;;1.20;99.90;;;;;;5272517;27;20224;-55
2024/04/21 04:55:07;;;;;;;4.73;4.20;;;1.30;99.90;;;;;;5272381;27;20232;-54
2024/04/21 04:57:32;;;;;;;4.90;3.90;;;1.30;99.90;;;;;;5272549;27;20225;-55
2024/04/21 04:59:58;;;;;;;7.37;4.93;;;1.40;99.90;;;;;;5271929;27;20241;-56
2024/04/21 05:02:24;;;;;;;5.50;3.90;;;1.40;99.90;;;;;;5272185;27;20241;-56
2024/04/21 05:04:49;;;;;;;7.00;4.70;;;1.40;99.90;;;;;;5272029;27;20587;-58
2024/04/21 05:07:15;;;;;;;5.30;4.13;;;1.40;99.90;;;;;;5272566;27;20418;-54
2024/04/21 05:09:40;;;;;;;4.97;4.40;;;1.50;99.90;;;;;;5271851;27;20236;-56
2024/04/21 05:12:06;;;;;;;6.10;3.97;;;1.60;99.90;;;;;;5272417;27;20224;-57
2024/04/21 05:14:32;;;;;;;5.30;4.13;;;1.60;99.90;;;;;;5272202;27;20276;-57
2024/04/21 05:16:58;;;;;;;4.37;3.50;;;1.70;99.90;;;;;;5272103;27;20471;-54
2024/04/21 05:19:23;;;;;;;4.27;3.87;;;1.80;99.90;;;;;;5272102;27;20711;-54
2024/04/21 05:21:49;;;;;;;6.37;4.40;;;1.80;99.90;;;;;;5272086;27;20228;-55
2024/04/21 05:24:14;;;;;;;5.33;3.20;;;2.00;99.90;;;;;;5272357;27;20228;-56
2024/04/21 05:26:40;;;;;;;7.90;4.87;;;2.10;99.90;;;;;;5272310;27;20263;-64
2024/04/21 05:29:06;;;;;;;4.37;3.37;;;2.30;99.90;;;;;;5271966;27;20228;-53
2024/04/21 05:31:31;;;;;;;5.20;3.33;;;2.50;99.90;;;;;;5272022;27;20568;-58
2024/04/21 05:33:57;;;;;;;4.70;4.20;;;2.60;99.90;;;;;;5271466;27;20296;-56
2024/04/21 05:36:22;;;;;;;3.33;3.03;;;2.70;99.90;;;;;;5272037;27;20232;-55
2024/04/21 05:38:51;;;;;;;6.73;3.97;;;3.00;99.90;;;;;;5271532;27;20228;-55
2024/04/21 05:41:16;;;;;;;6.13;3.80;;;3.20;99.90;;;;;;5271665;27;20232;-59
2024/04/21 05:43:42;;;;;;;5.40;3.73;;;3.20;99.90;;;;;;5273000;27;20609;-54
2024/04/21 05:46:07;;;;;;;7.33;3.40;;;3.30;99.90;;;;;;5271927;27;20232;-52
2024/04/21 05:48:33;;;;;;;6.00;3.47;;;3.30;99.90;;;;;;5271791;27;20267;-52
2024/04/21 05:50:58;;;;;;;5.20;3.93;;;3.30;99.90;;;;;;5271274;27;20232;-59
2024/04/21 05:53:24;;;;;;;5.53;4.27;;;3.40;99.90;;;;;;5271723;27;20837;-56
2024/04/21 05:55:50;;;;;;;3.53;3.23;;;3.40;99.90;;;;;;5271289;27;20299;-55
2024/04/21 05:58:15;;;;;;;4.60;3.40;;;3.90;99.90;;;;;;5271660;27;20233;-50
2024/04/21 06:00:41;;;;;;;3.80;3.13;;;4.90;99.90;;;;;;5272505;27;20280;-58
2024/04/21 06:03:06;;;;;;;4.80;2.80;;;5.30;96.90;;;;;;5274965;27;20225;-53
2024/04/21 06:05:32;;;;;;;3.60;3.30;;;5.40;95.40;;;;;;5275061;27;20289;-53
2024/04/21 06:07:58;;;;;;;6.47;3.63;;;5.90;94.70;;;;;;5274866;27;20233;-52
2024/04/21 06:10:24;;;;;;;4.40;3.73;;;6.10;93.40;;;;;;5274763;27;20874;-55
2024/04/21 06:12:53;;;;;;;5.67;3.70;;;6.10;92.00;;;;;;5274709;27;20228;-55
2024/04/21 06:15:19;;;;;;;3.93;2.50;;;6.50;91.50;;;;;;5274815;27;20501;-57
2024/04/21 06:17:45;;;;;;;3.53;3.20;;;6.80;89.30;;;;;;5274582;27;20470;-58
2024/04/21 06:20:11;;;;;;;3.00;2.70;;;6.90;87.30;;;;;;5274558;27;20473;-52
2024/04/21 06:22:37;;;;;;;4.83;3.97;;;6.90;85.20;;;;;;5274861;27;20275;-55
2024/04/21 06:25:03;;;;;;;3.57;3.27;;;7.30;84.80;;;;;;5274647;27;20578;-52
2024/04/21 06:27:29;;;;;;;4.80;3.00;;;7.00;81.40;;;;;;5275138;27;20279;-58
2024/04/21 06:29:58;;;;;;;2.90;2.60;;;7.50;83.50;;;;;;5274235;27;20591;-53
2024/04/21 06:32:23;;;;;;;3.90;2.97;;;7.60;78.70;;;;;;5274582;27;20531;-58
2024/04/21 06:34:49;;;;;;;4.03;3.50;;;7.90;78.90;;;;;;5274384;27;20522;-56
2024/04/21 06:37:15;;;;;;;3.50;2.90;;;8.70;78.90;;;;;;5274503;27;20229;-55
2024/04/21 06:39:40;;;;;;;3.80;3.30;;;8.90;70.60;;;;;;5274412;27;20331;-55
2024/04/21 06:42:07;;;;;;;3.80;2.93;;;9.00;70.60;;;;;;5274231;27;20272;-54
2024/04/21 06:44:32;;;;;;;3.10;2.77;;;8.60;69.30;;;;;;5274428;27;20330;-53
2024/04/21 06:46:58;;;;;;;5.00;2.60;;;9.20;67.30;;;;;;5274246;27;20872;-56
2024/04/21 06:49:24;;;;;;;3.20;2.90;;;9.20;62.10;;;;;;5274363;27;20367;-58
2024/04/21 06:51:49;;;;;;;3.30;2.97;;;9.40;63.10;;;;;;5274005;27;20229;-55
2024/04/21 06:54:15;;;;;;;2.60;2.40;;;9.80;61.40;;;;;;5274138;27;20343;-52
2024/04/21 06:56:42;;;;;;;2.43;2.10;;;9.60;62.00;;;;;;5274487;27;20561;-52
2024/04/21 06:59:07;;;;;;;3.47;2.77;;;9.70;59.10;;;;;;5274222;27;20552;-54
2024/04/21 07:01:33;;;;;;;3.63;2.93;;;9.60;58.40;;;;;;5274193;27;20477;-56
2024/04/21 07:03:58;;;;;;;4.07;2.67;;;9.40;58.00;;;;;;5274009;27;20700;-57
2024/04/21 07:06:24;;;;;;;3.43;3.13;;;9.90;58.40;;;;;;5274192;27;20273;-56
2024/04/21 07:08:49;;;;;;;5.30;2.60;;;9.80;60.60;;;;;;5274272;27;20230;-56
2024/04/21 07:11:15;;;;;;;4.03;2.50;;;10.40;56.10;;;;;;5273649;27;20704;-53
2024/04/21 07:13:41;;;;;;;2.10;1.90;;;10.30;53.00;;;;;;5274093;27;20291;-57
2024/04/21 07:16:06;;;;;;;2.80;2.17;;;10.00;52.70;;;;;;5274141;27;20295;-53
2024/04/21 07:18:32;;;;;;;2.57;2.17;;;10.30;52.60;;;;;;5274410;27;20229;-53
2024/04/21 07:20:57;;;;;;;2.20;2.00;;;10.20;51.30;;;;;;5273686;27;20280;-52
2024/04/21 07:23:23;;;;;;;2.40;2.10;;;10.30;51.10;;;;;;5274124;27;20226;-57
2024/04/21 07:25:49;;;;;;;2.33;2.13;;;10.20;50.20;;;;;;5273883;27;20233;-53
2024/04/21 07:28:14;;;;;;;2.10;1.83;;;10.60;51.20;;;;;;5274009;27;20236;-56
2024/04/21 07:30:40;;;;;;;4.07;2.87;;;11.00;50.50;;;;;;5273758;27;20284;-52
2024/04/21 07:33:05;;;;;;;8.33;2.90;;;10.60;49.40;;;;;;5273979;27;20275;-53
2024/04/21 07:35:31;;;;;;;2.57;1.77;;;11.00;49.00;;;;;;5273970;27;20290;-56
2024/04/21 07:37:57;;;;;;;2.50;2.10;;;10.90;48.90;;;;;;5243577;27;20313;-57
2024/04/21 07:40:22;;;;;;;1.90;1.80;;;11.00;48.30;;;;;;5273572;27;20251;-55
2024/04/21 07:42:48;;;;;;;3.13;2.50;;;11.10;46.90;;;;;;5273524;27;20306;-58
2024/04/21 07:45:13;;;;;;;5.93;2.43;;;11.10;46.80;;;;;;5273736;27;20370;-56
2024/04/21 07:47:39;;;;;;;2.23;2.03;;;10.70;46.80;;;;;;5273796;27;20688;-56
2024/04/21 07:50:05;;;;;;;4.00;1.87;;;10.70;45.90;;;;;;5273278;27;20344;-58
2024/04/21 07:52:32;;;;;;;3.27;2.60;;;11.00;46.60;;;;;;5273454;27;20795;-57
2024/04/21 07:54:58;;;;;;;3.27;2.27;;;10.40;46.70;;;;;;5274919;27;20849;-59
2024/04/21 07:57:23;;;;;;;2.30;2.10;;;10.70;47.70;;;;;;5275436;27;20521;-57
2024/04/21 07:59:49;;;;;;;3.53;1.90;;;11.40;47.50;;;;;;5273129;27;20277;-58
2024/04/21 08:02:15;;;;;;;3.53;1.80;;;11.20;45.70;;;;;;5273485;27;20230;-53
2024/04/21 08:04:40;;;;;;;3.30;2.17;;;11.20;45.10;;;;;;5273406;27;20234;-57
2024/04/21 08:07:06;;;;;;;2.37;2.00;;;11.00;44.70;;;;;;5273190;27;20246;-55
2024/04/21 08:09:32;;;;;;;2.10;1.97;;;11.00;45.70;;;;;;5273249;27;20350;-55
2024/04/21 08:11:59;;;;;;;3.63;2.43;;;11.30;45.50;;;;;;5272976;27;20303;-53
2024/04/21 08:14:24;;;;;;;3.43;1.77;;;10.50;45.20;;;;;;5273524;27;20469;-52
2024/04/21 08:16:50;;;;;;;2.87;1.80;;;10.80;46.50;;;;;;5273060;27;20725;-57
2024/04/21 08:19:15;;;;;;;2.03;1.83;;;11.20;46.10;;;;;;5272958;27;20225;-58
2024/04/21 08:21:41;;;;;;;3.40;2.10;;;11.50;45.20;;;;;;5273164;27;20239;-52
2024/04/21 08:24:07;;;;;;;4.13;2.40;;;11.00;44.60;;;;;;5272167;27;20312;-51
2024/04/21 08:26:32;;;;;;;2.57;1.83;;;11.40;45.70;;;;;;5273282;27;20225;-57
2024/04/21 08:28:58;;;;;;;2.30;1.50;;;11.30;44.40;;;;;;5273002;27;20469;-54
2024/04/21 08:31:24;;;;;;;3.00;1.80;;;11.80;44.10;;;;;;5272916;27;20423;-57
2024/04/21 08:33:49;;;;;;;2.50;2.07;;;11.50;43.50;;;;;;5273576;27;20682;-55
2024/04/21 08:36:15;;;;;;;1.83;1.73;;;11.20;43.30;;;;;;5272940;27;20231;-53
2024/04/21 08:38:40;;;;;;;2.87;2.50;;;11.30;45.30;;;;;;5273294;27;20359;-54
2024/04/21 08:41:12;;;;;;;3.00;2.40;;;11.10;44.10;;;;;;5272668;27;20349;-58
2024/04/21 08:43:39;;;;;;;2.50;2.00;;;11.50;43.90;;;;;;5273346;27;20253;-56
2024/04/21 08:46:05;;;;;;;2.70;2.10;;;12.00;43.60;;;;;;5273185;27;20462;-57
2024/04/21 08:48:31;;;;;;;2.10;1.90;;;12.20;44.80;;;;;;5273369;27;20980;-58
2024/04/21 08:50:57;;;;;;;2.47;1.97;;;11.60;43.50;;;;;;5273121;27;20530;-54
2024/04/21 08:53:24;;;;;;;3.50;2.87;;;11.90;42.90;;;;;;5272857;27;20471;-50
2024/04/21 08:55:50;;;;;;;3.10;2.00;;;11.80;43.80;;;;;;5273246;27;20533;-53
2024/04/21 08:58:17;;;;;;;2.57;1.90;;;12.00;43.40;;;;;;5272839;27;20550;-51
2024/04/21 09:00:45;;;;;;;2.20;2.00;;;11.40;44.00;;;;;;5272705;27;20536;-50
2024/04/21 09:03:10;;;;;;;2.50;1.63;;;11.70;46.00;;;;;;5272723;27;20539;-59
2024/04/21 09:05:36;;;;;;;2.37;2.17;;;12.70;43.10;;;;;;5272905;27;20468;-56
2024/04/21 09:08:02;;;;;;;1.77;1.67;;;13.20;42.60;;;;;;5272673;27;20276;-59
2024/04/21 09:10:28;;;;;;;2.23;2.03;;;12.30;40.50;;;;;;5272551;27;20579;-55
2024/04/21 09:12:54;;;;;;;4.57;2.17;;;12.30;40.10;;;;;;5272483;27;20327;-58
2024/04/21 09:15:20;;;;;;;2.53;2.30;;;12.20;40.50;;;;;;5272863;27;20382;-56
2024/04/21 09:17:46;;;;;;;2.40;2.03;;;11.70;40.90;;;;;;5272552;27;20613;-56
2024/04/21 09:20:12;;;;;;;2.37;2.17;;;10.90;41.80;;;;;;5271600;27;20939;-57
2024/04/21 09:22:38;;;;;;;3.90;2.10;;;11.40;42.90;;;;;;5272701;27;20688;-53
2024/04/21 09:25:07;;;;;;;2.20;2.07;;;11.00;42.90;;;;;;5271894;27;20455;-55
2024/04/21 09:27:33;;;;;;;3.33;2.10;;;10.90;43.50;;;;;;5272252;27;21117;-57
2024/04/21 09:30:01;;;;;;;2.50;2.30;;;11.60;43.40;;;;;;5271683;27;20476;-56
2024/04/21 09:32:28;;;;;;;3.33;2.13;;;11.80;44.00;;;;;;5272310;27;20465;-57
2024/04/21 09:34:54;;;;;;;1.97;1.87;;;12.30;42.90;;;;;;5273588;27;20580;-57
2024/04/21 09:37:20;;;;;;;2.27;2.07;;;11.70;42.70;;;;;;5275524;27;20558;-55
2024/04/21 09:39:46;;;;;;;2.40;2.23;;;11.90;44.00;;;;;;5274191;27;20557;-56
2024/04/21 09:42:16;;;;;;;2.67;2.17;;;11.00;44.00;;;;;;5275277;27;20259;-53
2024/04/21 09:44:46;;;;;;;1.70;1.60;;;10.40;43.90;;;;;;5275811;27;20512;-53
2024/04/21 09:47:14;;;;;;;4.03;2.37;;;9.90;45.10;;;;;;5275227;27;20516;-53
2024/04/21 09:49:42;;;;;;;3.13;2.00;;;9.50;45.40;;;;;;5274796;27;20520;-59
2024/04/21 09:52:08;;;;;;;2.93;2.70;;;10.00;45.80;;;;;;5274870;27;21015;-58
2024/04/21 09:54:34;;;;;;;3.40;2.60;;;10.00;45.10;;;;;;5275178;27;20524;-60
2024/04/21 09:57:21;;;;;;;4.27;2.53;;;9.50;46.30;;;;;;5274870;27;20882;-55
2024/04/21 09:59:48;;;;;;;2.93;2.27;;;9.10;47.20;;;;;;5275053;27;20275;-53
2024/04/21 10:02:23;;;;;;;2.13;1.93;;;9.20;48.00;;;;;;5276326;27;20460;-59
2024/04/21 10:05:10;;;;;;;3.23;2.90;;;8.90;47.80;;;;;;5278969;27;20466;-54
2024/04/21 10:07:37;;;;;;;2.13;1.93;;;8.80;48.60;;;;;;5268817;27;20458;-58
2024/04/21 10:10:16;;;;;;;2.63;2.37;;;9.10;48.80;;;;;;5275526;27;20463;-56
2024/04/21 10:12:43;;;;;;;2.40;2.13;;;9.30;48.30;;;;;;5275432;27;20515;-57
2024/04/21 10:15:10;;;;;;;3.60;2.80;;;9.60;49.50;;;;;;5274594;27;20552;-56
2024/04/21 10:17:36;;;;;;;6.83;2.30;;;9.30;48.80;;;;;;5274853;27;20519;-56
2024/04/21 10:20:05;;;;;;;5.27;2.87;;;9.00;48.80;;;;;;5274598;27;21020;-58
2024/04/21 10:22:36;;;;;;;3.57;2.10;;;9.20;49.40;;;;;;5275187;27;20225;-53
2024/04/21 10:25:05;;;;;;;4.80;2.30;;;9.20;49.60;;;;;;5274781;27;20579;-52
2024/04/21 10:27:30;;;;;;;3.30;3.00;;;9.20;48.40;;;;;;5274691;27;20506;-51
2024/04/21 10:29:56;;;;;;;2.23;2.10;;;8.90;48.70;;;;;;5274590;27;20584;-50
2024/04/21 10:32:26;;;;;;;4.60;2.33;;;9.00;48.40;;;;;;5274827;27;20230;-57
2024/04/21 10:34:54;;;;;;;3.10;2.17;;;9.40;49.00;;;;;;5274948;27;20324;-57
2024/04/21 10:37:26;;;;;;;2.43;2.23;;;9.20;48.50;;;;;;5274717;27;20523;-57
2024/04/21 10:39:59;;;;;;;2.50;2.30;;;9.10;47.70;;;;;;5274672;27;21066;-56
2024/04/21 10:42:25;;;;;;;3.20;2.60;;;9.20;49.10;;;;;;5274797;27;20523;-52
2024/04/21 10:44:51;;;;;;;3.03;2.70;;;9.60;49.20;;;;;;5274936;27;20641;-51
2024/04/21 10:47:16;;;;;;;2.50;2.27;;;9.30;49.70;;;;;;5273916;27;20231;-59
2024/04/21 10:49:42;;;;;;;3.00;2.20;;;9.60;50.10;;;;;;5274094;27;20277;-58
2024/04/21 10:52:08;;;;;;;5.33;2.87;;;9.40;50.20;;;;;;5274406;27;20624;-56
2024/04/21 10:54:35;;;;;;;3.10;2.50;;;9.50;50.30;;;;;;5274403;27;20235;-52
2024/04/21 10:57:03;;;;;;;7.43;2.43;;;9.80;49.00;;;;;;5274392;27;20464;-51
2024/04/21 10:59:30;;;;;;;1.80;1.70;;;10.10;48.00;;;;;;5274225;27;20466;-55
2024/04/21 11:01:56;;;;;;;3.30;3.00;;;10.10;46.90;;;;;;5274399;27;20463;-54
2024/04/21 11:04:22;;;;;;;3.93;2.67;;;9.90;48.80;;;;;;5244359;27;21038;-58
2024/04/21 11:06:48;;;;;;;2.50;2.20;;;9.90;48.80;;;;;;5274564;27;20271;-57
2024/04/21 11:09:13;;;;;;;2.80;2.40;;;9.40;49.80;;;;;;5274157;27;20226;-54
2024/04/21 11:11:40;;;;;;;3.90;2.27;;;9.30;51.20;;;;;;5274140;27;21057;-53
2024/04/21 11:14:05;;;;;;;3.10;2.70;;;9.20;52.80;;;;;;5260482;27;20711;-56
2024/04/21 11:16:32;;;;;;;2.70;2.50;;;9.30;53.70;;;;;;5274142;27;20579;-54
2024/04/21 11:18:58;;;;;;;2.47;2.27;;;9.00;52.60;;;;;;5274274;27;20236;-53
2024/04/21 11:21:24;;;;;;;2.80;2.60;;;9.30;52.40;;;;;;5274237;27;20506;-52
2024/04/21 11:23:50;;;;;;;2.87;2.13;;;9.60;52.40;;;;;;5274465;27;20268;-58
2024/04/21 11:26:16;;;;;;;2.80;2.17;;;9.60;50.40;;;;;;5273914;27;20467;-57
2024/04/21 11:28:43;;;;;;;3.10;2.87;;;9.40;50.60;;;;;;5274284;27;20606;-54
2024/04/21 11:31:09;;;;;;;3.93;2.40;;;9.40;50.80;;;;;;5273782;27;20648;-55
2024/04/21 11:33:35;;;;;;;2.87;2.50;;;9.10;51.50;;;;;;5274092;27;20470;-57
2024/04/21 11:36:12;;;;;;;2.83;2.63;;;9.00;51.50;;;;;;5273754;27;20233;-58
2024/04/21 11:38:37;;;;;;;4.37;2.30;;;9.20;52.50;;;;;;5274356;27;20878;-56
2024/04/21 11:41:03;;;;;;;2.50;2.30;;;9.40;52.20;;;;;;5274010;27;20470;-54
2024/04/21 11:43:29;;;;;;;2.63;2.27;;;9.70;51.80;;;;;;5274813;27;20244;-59
2024/04/21 11:46:01;;;;;;;2.07;1.87;;;10.10;51.80;;;;;;5244911;27;20494;-51
2024/04/21 11:48:36;;;;;;;2.17;1.97;;;9.80;50.00;;;;;;5274117;27;20546;-56
2024/04/21 11:51:03;;;;;;;2.20;2.00;;;9.50;49.40;;;;;;5273571;27;20663;-61
2024/04/21 11:53:29;;;;;;;3.27;2.17;;;9.40;49.20;;;;;;5274080;27;21005;-55
2024/04/21 11:55:55;;;;;;;3.20;2.70;;;9.20;48.40;;;;;;5273793;27;20559;-56
2024/04/21 11:58:20;;;;;;;3.17;2.60;;;9.20;48.00;;;;;;5271979;27;20455;-55
2024/04/21 12:00:46;;;;;;;3.50;2.70;;;9.40;49.10;;;;;;5273696;27;20685;-54
2024/04/21 12:03:12;;;;;;;2.40;2.20;;;9.30;48.80;;;;;;5273604;27;20226;-53
2024/04/21 12:05:37;;;;;;;2.70;1.90;;;9.30;50.20;;;;;;5273591;27;20341;-58
2024/04/21 12:08:03;;;;;;;3.33;2.33;;;9.20;50.80;;;;;;5273746;27;20240;-59
2024/04/21 12:10:29;;;;;;;12.63;3.00;;;9.10;50.50;;;;;;5273838;27;20236;-56
2024/04/21 12:12:55;;;;;;;2.90;2.43;;;9.00;51.20;;;;;;5274302;27;21061;-56
2024/04/21 12:15:21;;;;;;;3.40;2.90;;;8.90;51.50;;;;;;5274049;27;20234;-57
2024/04/21 12:17:46;;;;;;;2.97;2.77;;;9.00;51.10;;;;;;5260393;27;20236;-54
2024/04/21 12:20:13;;;;;;;2.40;2.20;;;9.40;52.00;;;;;;5274374;27;20727;-54
2024/04/21 12:22:39;;;;;;;4.23;2.90;;;9.70;50.50;;;;;;5274565;27;20229;-58
2024/04/21 12:25:05;;;;;;;2.40;2.20;;;9.70;50.00;;;;;;5273520;27;20881;-51
2024/04/21 12:27:30;;;;;;;4.90;3.63;;;9.70;50.30;;;;;;5267347;27;20324;-57
2024/04/21 12:29:56;;;;;;;2.80;2.40;;;10.00;49.90;;;;;;5265522;27;20232;-56
2024/04/21 12:32:21;;;;;;;3.97;2.70;;;10.10;48.90;;;;;;5273248;27;20736;-55
2024/04/21 12:34:47;;;;;;;3.57;1.90;;;10.30;49.00;;;;;;5273205;27;20899;-57
2024/04/21 12:37:13;;;;;;;2.87;2.57;;;10.30;48.10;;;;;;5273234;27;20224;-51
2024/04/21 12:39:39;;;;;;;3.57;2.80;;;10.40;48.70;;;;;;5273025;27;20232;-58
2024/04/21 12:42:05;;;;;;;2.10;1.93;;;10.20;46.40;;;;;;5272987;27;20331;-57
2024/04/21 12:44:31;;;;;;;2.20;2.00;;;10.10;46.30;;;;;;5273226;27;20526;-57
2024/04/21 12:46:56;;;;;;;2.23;2.03;;;10.10;47.10;;;;;;5273328;27;20467;-58
2024/04/21 12:49:22;;;;;;;2.50;2.20;;;9.80;48.70;;;;;;5272869;27;20551;-56